Time;durP1;ratioP1;P1;durP2;ratioP2;P2;SDS_P1;SDS_P2;PMS_P1;PMS_P2;Temp;Humidity;BMP_temperature;BMP_pressure;BME280_temperature;BME280_humidity;BME280_pressure;Samples;Min_cycle;Max_cycle;Signal;HPM_P1;HPM_P2
2023/05/21 00:01:28;;;;;;;10.23;3.45;;;14.90;99.90;;;;;;4995036;28;20060;-82
2023/05/21 00:04:14;;;;;;;10.77;4.20;;;14.90;99.90;;;;;;4995041;28;20137;-82
2023/05/21 00:07:00;;;;;;;8.27;4.03;;;14.90;99.90;;;;;;5012886;28;20065;-82
2023/05/21 00:09:46;;;;;;;8.02;3.42;;;14.80;99.90;;;;;;5011763;28;20061;-84
2023/05/21 00:12:33;;;;;;;8.43;3.72;;;14.90;99.90;;;;;;4994137;28;20069;-84
2023/05/21 00:15:19;;;;;;;9.77;3.95;;;14.90;99.90;;;;;;5011985;28;20140;-85
2023/05/21 00:18:05;;;;;;;7.55;3.65;;;14.90;99.90;;;;;;5013035;28;20054;-84
2023/05/21 00:20:51;;;;;;;10.38;4.30;;;14.90;99.90;;;;;;4994478;28;20045;-81
2023/05/21 00:23:38;;;;;;;9.63;3.70;;;14.80;99.90;;;;;;5012808;28;20042;-84
2023/05/21 00:26:24;;;;;;;11.40;4.55;;;14.80;99.90;;;;;;5011402;28;20140;-84
2023/05/21 00:29:10;;;;;;;11.63;4.32;;;14.80;99.90;;;;;;5012386;28;20121;-84
2023/05/21 00:31:56;;;;;;;9.13;3.58;;;14.80;99.90;;;;;;5011473;28;20058;-84
2023/05/21 00:34:43;;;;;;;9.98;4.10;;;14.80;99.90;;;;;;5010777;28;20057;-84
2023/05/21 00:37:32;;;;;;;7.85;3.75;;;14.80;99.90;;;;;;4993982;28;20273;-83
2023/05/21 00:40:19;;;;;;;9.23;3.70;;;14.70;99.90;;;;;;5011775;28;20124;-82
2023/05/21 00:43:06;;;;;;;10.48;3.85;;;14.80;99.90;;;;;;5010562;28;20057;-85
2023/05/21 00:45:55;;;;;;;10.93;4.15;;;14.80;99.90;;;;;;4992867;28;20120;-82
2023/05/21 00:48:43;;;;;;;10.48;3.13;;;14.70;99.90;;;;;;4993880;28;20579;-84
2023/05/21 00:51:29;;;;;;;9.00;4.03;;;14.80;99.90;;;;;;5011198;28;20054;-81
2023/05/21 00:54:15;;;;;;;9.80;3.65;;;14.70;99.90;;;;;;5011278;28;20068;-83
2023/05/21 00:57:03;;;;;;;11.13;3.58;;;14.70;99.90;;;;;;4992192;28;20490;-84
2023/05/21 00:59:51;;;;;;;12.95;4.53;;;14.60;99.90;;;;;;5010310;28;20143;-84
2023/05/21 01:02:37;;;;;;;12.30;3.75;;;14.60;99.90;;;;;;4993340;28;20057;-82
2023/05/21 01:05:23;;;;;;;9.00;3.75;;;14.60;99.90;;;;;;4992788;28;20401;-83
2023/05/21 01:08:10;;;;;;;7.18;4.00;;;14.60;99.90;;;;;;4993358;28;20093;-82
2023/05/21 01:10:57;;;;;;;10.45;3.85;;;14.60;99.90;;;;;;5009258;28;20081;-82
2023/05/21 01:13:44;;;;;;;10.88;3.25;;;14.60;99.90;;;;;;4993917;28;20519;-82
2023/05/21 01:16:31;;;;;;;17.23;4.68;;;14.60;99.90;;;;;;4997540;28;20116;-84
2023/05/21 01:19:21;;;;;;;15.07;4.20;;;14.60;99.90;;;;;;4997229;28;20524;-82
2023/05/21 01:22:08;;;;;;;13.65;3.75;;;14.50;99.90;;;;;;5011026;28;20488;-82
2023/05/21 01:24:54;;;;;;;15.23;4.22;;;14.50;99.90;;;;;;4994641;28;20056;-82
2023/05/21 01:27:40;;;;;;;12.75;4.22;;;14.60;99.90;;;;;;5012335;28;20062;-82
2023/05/21 01:30:27;;;;;;;11.25;3.20;;;14.50;99.90;;;;;;5010918;28;20054;-82
2023/05/21 01:33:22;;;;;;;10.60;4.00;;;14.50;99.90;;;;;;4993835;28;20057;-81
2023/05/21 01:36:16;;;;;;;13.35;4.25;;;14.40;99.90;;;;;;4993725;28;20096;-83
2023/05/21 01:39:12;;;;;;;9.32;3.97;;;14.40;99.90;;;;;;5010513;28;20127;-82
2023/05/21 01:42:02;;;;;;;11.25;3.67;;;14.40;99.90;;;;;;4992166;28;20498;-82
2023/05/21 01:44:52;;;;;;;12.43;3.72;;;14.40;99.90;;;;;;4993555;28;20062;-82
2023/05/21 01:47:39;;;;;;;11.60;3.45;;;14.40;99.90;;;;;;5010653;28;20061;-81
2023/05/21 01:50:25;;;;;;;16.08;3.67;;;14.50;99.90;;;;;;5009926;28;20064;-82
2023/05/21 01:53:12;;;;;;;8.15;3.25;;;14.40;99.90;;;;;;5009771;28;20058;-82
2023/05/21 01:55:58;;;;;;;10.00;3.78;;;14.30;99.90;;;;;;5010504;28;20182;-82
2023/05/21 01:58:44;;;;;;;14.30;3.85;;;14.30;99.90;;;;;;5007518;28;20112;-82
2023/05/21 02:01:31;;;;;;;12.55;3.00;;;14.30;99.90;;;;;;5010182;28;20050;-82
2023/05/21 02:04:17;;;;;;;11.07;3.45;;;14.30;99.90;;;;;;4992559;28;20046;-83
2023/05/21 02:07:04;;;;;;;14.20;3.33;;;14.30;99.90;;;;;;4992001;28;20060;-83
2023/05/21 02:09:50;;;;;;;13.48;4.13;;;14.20;99.90;;;;;;4992245;28;20061;-83
2023/05/21 02:12:36;;;;;;;14.60;3.80;;;14.20;99.90;;;;;;4992101;28;20061;-82
2023/05/21 02:15:23;;;;;;;15.90;4.97;;;14.20;99.90;;;;;;5009822;28;20092;-82
2023/05/21 02:18:10;;;;;;;14.30;3.63;;;14.20;99.90;;;;;;5004702;28;20054;-83
2023/05/21 02:20:56;;;;;;;16.02;4.45;;;14.10;99.90;;;;;;4993215;28;20057;-81
2023/05/21 02:23:42;;;;;;;16.95;3.90;;;14.20;99.90;;;;;;5010021;28;20521;-84
2023/05/21 02:26:28;;;;;;;11.88;4.40;;;14.10;99.90;;;;;;5010357;28;20116;-83
2023/05/21 02:29:14;;;;;;;12.18;4.03;;;14.10;99.90;;;;;;4995376;28;20045;-82
2023/05/21 02:32:00;;;;;;;13.45;4.03;;;14.10;99.90;;;;;;5009256;28;20053;-82
2023/05/21 02:34:46;;;;;;;10.93;3.47;;;14.10;99.90;;;;;;4991422;28;20061;-81
2023/05/21 02:37:32;;;;;;;13.48;4.07;;;14.10;99.90;;;;;;4991909;28;20088;-84
2023/05/21 02:40:19;;;;;;;8.25;3.58;;;14.10;99.90;;;;;;4992301;28;20137;-83
2023/05/21 02:43:05;;;;;;;11.73;3.65;;;14.10;99.90;;;;;;5010590;28;20510;-84
2023/05/21 02:45:51;;;;;;;9.95;3.50;;;14.00;99.90;;;;;;4991203;28;20050;-82
2023/05/21 02:48:37;;;;;;;12.90;3.88;;;14.00;99.90;;;;;;5009574;28;20050;-82
2023/05/21 02:51:23;;;;;;;13.07;3.95;;;14.10;99.90;;;;;;5009525;28;20050;-83
2023/05/21 02:54:09;;;;;;;13.32;3.90;;;14.00;99.90;;;;;;5003381;28;20049;-83
2023/05/21 02:56:55;;;;;;;14.20;4.75;;;14.00;99.90;;;;;;5011494;28;20054;-81
2023/05/21 02:59:41;;;;;;;13.65;4.57;;;13.90;99.90;;;;;;4994070;28;20053;-82
2023/05/21 03:02:27;;;;;;;9.10;3.35;;;13.90;99.90;;;;;;5010035;28;20053;-83
2023/05/21 03:05:13;;;;;;;10.90;3.20;;;13.90;99.90;;;;;;4991015;28;20498;-81
2023/05/21 03:08:00;;;;;;;12.50;3.63;;;13.80;99.90;;;;;;4991369;28;20054;-86
2023/05/21 03:10:46;;;;;;;19.38;4.50;;;13.80;99.90;;;;;;5009561;28;20060;-82
2023/05/21 03:13:32;;;;;;;11.95;3.85;;;13.70;99.90;;;;;;4995270;28;20455;-82
2023/05/21 03:16:18;;;;;;;14.77;4.38;;;13.60;99.90;;;;;;4998216;28;20144;-84
2023/05/21 03:19:04;;;;;;;14.00;3.25;;;13.60;99.90;;;;;;4994868;28;20049;-82
2023/05/21 03:21:50;;;;;;;12.35;4.13;;;13.50;99.90;;;;;;5012188;28;20061;-82
2023/05/21 03:24:40;;;;;;;16.23;3.40;;;13.60;99.90;;;;;;4995332;28;20054;-83
2023/05/21 03:27:26;;;;;;;12.18;3.72;;;13.50;99.90;;;;;;5013776;28;20053;-84
2023/05/21 03:30:12;;;;;;;13.70;3.55;;;13.50;99.90;;;;;;4995912;28;20057;-82
2023/05/21 03:32:58;;;;;;;16.90;4.50;;;13.50;99.90;;;;;;5013003;28;20058;-82
2023/05/21 03:35:44;;;;;;;13.40;3.40;;;13.50;99.90;;;;;;4995277;28;20060;-82
2023/05/21 03:38:31;;;;;;;11.70;3.40;;;13.50;99.90;;;;;;4994609;28;20056;-82
2023/05/21 03:41:17;;;;;;;9.13;3.78;;;13.50;99.90;;;;;;5013639;28;20413;-82
2023/05/21 03:44:03;;;;;;;14.88;3.45;;;13.50;99.90;;;;;;4981246;28;20123;-81
2023/05/21 03:46:49;;;;;;;13.18;4.03;;;13.50;99.90;;;;;;5010389;28;20058;-82
2023/05/21 03:49:35;;;;;;;14.27;3.13;;;13.50;99.90;;;;;;5011767;28;20087;-82
2023/05/21 03:52:21;;;;;;;13.63;3.40;;;13.50;99.90;;;;;;5011994;28;20077;-82
2023/05/21 03:55:08;;;;;;;14.10;3.30;;;13.50;99.90;;;;;;5010165;28;20156;-85
2023/05/21 03:57:54;;;;;;;13.32;3.17;;;13.50;99.90;;;;;;4994211;28;20410;-84
2023/05/21 04:00:40;;;;;;;12.52;3.00;;;13.60;99.90;;;;;;4995440;28;20054;-81
2023/05/21 04:03:26;;;;;;;13.55;3.38;;;13.60;99.90;;;;;;5011943;28;20107;-86
2023/05/21 04:06:12;;;;;;;19.88;4.80;;;13.50;99.90;;;;;;5010238;28;20057;-87
2023/05/21 04:08:58;;;;;;;12.40;3.85;;;13.60;99.90;;;;;;5011810;28;20053;-86
2023/05/21 04:11:45;;;;;;;9.00;2.72;;;13.60;99.90;;;;;;5012343;28;20058;-84
2023/05/21 04:14:32;;;;;;;10.15;3.70;;;13.60;99.90;;;;;;4994698;28;20049;-85
2023/05/21 04:17:19;;;;;;;12.40;3.20;;;13.60;99.90;;;;;;4994844;28;20050;-85
2023/05/21 04:20:06;;;;;;;14.05;4.63;;;13.60;99.90;;;;;;4994917;28;20545;-86
2023/05/21 04:22:52;;;;;;;10.48;3.63;;;13.60;99.90;;;;;;4993288;28;20057;-84
2023/05/21 04:25:38;;;;;;;19.50;5.13;;;13.60;99.90;;;;;;5012123;28;20058;-83
2023/05/21 04:28:27;;;;;;;19.83;4.00;;;13.60;99.90;;;;;;4994522;28;20410;-84
2023/05/21 04:31:13;;;;;;;14.05;3.97;;;13.60;99.90;;;;;;5012358;28;20053;-85
2023/05/21 04:34:00;;;;;;;15.05;4.22;;;13.70;99.90;;;;;;4981954;28;20115;-83
2023/05/21 04:36:46;;;;;;;11.07;3.60;;;13.60;99.90;;;;;;5012170;28;20053;-84
2023/05/21 04:39:33;;;;;;;12.82;4.00;;;13.70;99.90;;;;;;5011937;28;20061;-84
2023/05/21 04:42:22;;;;;;;16.17;4.45;;;13.70;99.90;;;;;;4994341;28;20049;-85
2023/05/21 04:45:09;;;;;;;14.00;3.40;;;13.70;99.90;;;;;;4993867;28;20057;-84
2023/05/21 04:47:59;;;;;;;10.18;4.40;;;13.60;99.90;;;;;;4994186;28;20141;-85
2023/05/21 04:50:45;;;;;;;17.38;4.43;;;13.60;99.90;;;;;;5013073;28;20050;-84
2023/05/21 04:53:32;;;;;;;15.07;3.70;;;13.60;99.90;;;;;;4980298;28;20054;-86
2023/05/21 04:56:20;;;;;;;12.55;3.25;;;13.70;99.90;;;;;;4994199;28;20489;-84
2023/05/21 04:59:06;;;;;;;9.93;3.58;;;13.70;99.90;;;;;;5011673;28;20058;-85
2023/05/21 05:01:52;;;;;;;12.65;3.83;;;13.70;99.90;;;;;;4993801;28;20096;-87
2023/05/21 05:04:38;;;;;;;13.80;4.05;;;13.70;99.90;;;;;;4980526;28;20053;-83
2023/05/21 05:07:24;;;;;;;12.15;3.20;;;13.70;99.90;;;;;;5010088;28;20142;-84
2023/05/21 05:10:10;;;;;;;13.68;4.22;;;13.70;99.90;;;;;;4993916;28;20062;-85
2023/05/21 05:12:56;;;;;;;10.85;3.25;;;13.70;99.90;;;;;;5010924;28;20061;-85
2023/05/21 05:15:42;;;;;;;9.48;3.17;;;13.70;99.90;;;;;;5011294;28;20068;-85
2023/05/21 05:18:29;;;;;;;10.93;3.30;;;13.80;99.90;;;;;;4993218;28;20050;-86
2023/05/21 05:21:15;;;;;;;14.50;4.13;;;13.80;99.90;;;;;;4995701;28;20069;-84
2023/05/21 05:24:01;;;;;;;10.35;3.63;;;13.90;99.90;;;;;;4980525;28;20077;-84
2023/05/21 05:26:47;;;;;;;14.50;3.10;;;14.00;99.90;;;;;;4995938;28;20391;-85
2023/05/21 05:29:33;;;;;;;10.45;3.40;;;14.00;99.90;;;;;;5010038;28;20089;-85
2023/05/21 05:32:19;;;;;;;7.35;3.10;;;14.10;99.90;;;;;;4992774;28;20057;-85
2023/05/21 05:35:06;;;;;;;13.98;3.08;;;14.10;99.90;;;;;;4992232;28;20060;-85
2023/05/21 05:37:52;;;;;;;14.05;4.05;;;14.10;99.90;;;;;;4994093;28;20137;-86
2023/05/21 05:40:38;;;;;;;12.95;3.88;;;14.20;99.90;;;;;;5010259;28;20053;-85
2023/05/21 05:43:25;;;;;;;13.13;3.47;;;14.20;99.90;;;;;;4980016;28;20513;-82
2023/05/21 05:46:15;;;;;;;14.55;4.65;;;14.20;99.90;;;;;;5011367;28;20062;-84
2023/05/21 05:49:01;;;;;;;9.73;3.17;;;14.20;99.90;;;;;;4993161;28;20085;-82
2023/05/21 05:51:47;;;;;;;7.18;2.83;;;14.20;99.90;;;;;;5010252;28;20058;-85
2023/05/21 05:54:33;;;;;;;11.88;2.95;;;14.30;99.90;;;;;;4992765;28;20491;-86
2023/05/21 05:57:19;;;;;;;11.43;3.28;;;14.30;99.90;;;;;;4991714;28;20112;-84
2023/05/21 06:00:06;;;;;;;12.55;3.55;;;14.40;99.90;;;;;;4992466;28;20054;-84
2023/05/21 06:02:52;;;;;;;9.95;2.83;;;14.60;99.90;;;;;;5010387;28;20149;-84
2023/05/21 06:05:38;;;;;;;14.30;3.10;;;14.70;99.90;;;;;;5009786;28;20065;-82
2023/05/21 06:08:24;;;;;;;9.77;2.58;;;14.90;99.90;;;;;;5009248;28;20093;-87
2023/05/21 06:11:10;;;;;;;9.02;2.80;;;14.90;99.90;;;;;;5009546;28;20132;-84
2023/05/21 06:13:59;;;;;;;11.77;3.20;;;14.90;99.90;;;;;;4992769;28;20050;-85
2023/05/21 06:16:45;;;;;;;11.13;2.58;;;15.00;99.90;;;;;;5010046;28;20115;-83
2023/05/21 06:19:31;;;;;;;11.13;3.05;;;15.10;99.90;;;;;;4992395;28;20478;-84
2023/05/21 06:22:17;;;;;;;9.90;2.80;;;15.10;99.90;;;;;;5009644;28;20058;-84
2023/05/21 06:25:04;;;;;;;13.90;2.42;;;15.20;99.90;;;;;;4992136;28;20050;-84
2023/05/21 06:27:50;;;;;;;12.85;3.17;;;15.30;99.90;;;;;;4992482;28;20426;-83
2023/05/21 06:30:36;;;;;;;16.83;2.85;;;15.30;99.90;;;;;;4966040;28;20469;-84
2023/05/21 06:33:22;;;;;;;7.18;2.63;;;15.30;99.90;;;;;;5008735;28;20171;-84
2023/05/21 06:36:08;;;;;;;9.55;2.80;;;15.50;99.90;;;;;;5008418;28;20064;-85
2023/05/21 06:38:58;;;;;;;12.63;3.38;;;15.60;99.90;;;;;;5008537;28;20065;-85
2023/05/21 06:41:44;;;;;;;9.90;3.83;;;15.60;99.90;;;;;;5009682;28;20050;-82
2023/05/21 06:44:30;;;;;;;10.07;2.60;;;15.70;99.90;;;;;;5009660;28;20157;-82
2023/05/21 06:47:19;;;;;;;8.52;2.70;;;15.70;99.90;;;;;;4995645;28;20057;-85
2023/05/21 06:50:05;;;;;;;10.55;2.83;;;15.80;99.90;;;;;;4996339;28;20058;-85
2023/05/21 06:52:51;;;;;;;9.63;2.45;;;15.90;99.90;;;;;;4995950;28;20058;-86
2023/05/21 06:55:37;;;;;;;10.50;3.08;;;15.90;99.90;;;;;;5013229;28;20058;-87
2023/05/21 06:58:24;;;;;;;8.80;2.55;;;16.00;99.90;;;;;;4995722;28;20061;-86
2023/05/21 07:01:13;;;;;;;7.45;2.25;;;16.10;99.90;;;;;;5012405;28;20069;-85
2023/05/21 07:04:00;;;;;;;8.27;2.47;;;16.20;99.90;;;;;;4982692;28;20132;-84
2023/05/21 07:06:47;;;;;;;8.35;2.63;;;16.30;99.90;;;;;;4995618;28;20052;-83
2023/05/21 07:09:33;;;;;;;11.10;2.75;;;16.40;99.90;;;;;;5011709;28;20061;-85
2023/05/21 07:12:19;;;;;;;8.45;2.30;;;16.50;99.90;;;;;;5014145;28;20053;-84
2023/05/21 07:15:06;;;;;;;14.52;2.65;;;16.50;99.90;;;;;;4995363;28;20196;-86
2023/05/21 07:17:52;;;;;;;11.77;2.30;;;16.60;99.90;;;;;;4996059;28;20057;-85
2023/05/21 07:20:38;;;;;;;6.82;1.73;;;16.80;99.90;;;;;;5012816;28;20141;-86
2023/05/21 07:23:25;;;;;;;6.82;1.90;;;17.00;99.90;;;;;;4995708;28;20049;-86
2023/05/21 07:26:12;;;;;;;9.07;2.40;;;17.10;99.90;;;;;;4999078;28;20140;-85
2023/05/21 07:28:58;;;;;;;10.07;2.38;;;17.10;99.90;;;;;;5012698;28;20642;-83
2023/05/21 07:31:44;;;;;;;13.30;2.47;;;17.20;99.90;;;;;;5012985;28;20058;-85
2023/05/21 07:34:30;;;;;;;7.85;2.92;;;17.40;99.90;;;;;;4995126;28;20054;-87
2023/05/21 07:37:16;;;;;;;10.73;2.22;;;17.50;99.90;;;;;;5012897;28;20076;-85
2023/05/21 07:40:03;;;;;;;6.70;2.25;;;17.60;99.90;;;;;;5011881;28;20053;-84
2023/05/21 07:42:49;;;;;;;9.32;2.50;;;17.80;99.90;;;;;;5012489;28;20054;-86
2023/05/21 07:45:35;;;;;;;12.20;2.75;;;17.80;99.90;;;;;;4995905;28;20065;-85
2023/05/21 07:48:22;;;;;;;7.13;1.80;;;17.90;99.90;;;;;;5012041;28;20469;-86
2023/05/21 07:51:08;;;;;;;11.07;2.90;;;18.20;99.90;;;;;;4995531;28;20098;-88
2023/05/21 07:53:55;;;;;;;8.45;2.10;;;18.10;99.90;;;;;;5012116;28;20574;-86
2023/05/21 07:56:41;;;;;;;8.90;1.88;;;18.10;99.90;;;;;;5013101;28;20085;-85
2023/05/21 07:59:27;;;;;;;9.15;2.70;;;17.90;99.90;;;;;;5009699;28;20088;-89
2023/05/21 08:02:14;;;;;;;9.95;2.47;;;18.00;99.90;;;;;;5012673;28;20057;-87
2023/05/21 08:05:02;;;;;;;8.18;2.22;;;18.00;99.90;;;;;;5013099;28;20199;-85
2023/05/21 08:07:48;;;;;;;11.27;2.08;;;18.20;99.90;;;;;;5012419;28;20410;-86
2023/05/21 08:10:35;;;;;;;8.68;2.42;;;18.10;99.90;;;;;;4995000;28;20058;-85
2023/05/21 08:13:22;;;;;;;9.43;2.30;;;18.10;99.90;;;;;;5002887;28;20112;-83
2023/05/21 08:16:08;;;;;;;9.60;2.50;;;18.10;99.90;;;;;;5021758;28;20148;-84
2023/05/21 08:18:54;;;;;;;8.13;1.88;;;18.00;99.90;;;;;;5021488;28;20053;-82
2023/05/21 08:21:40;;;;;;;6.93;2.03;;;18.00;99.90;;;;;;5011267;28;20069;-82
2023/05/21 08:24:27;;;;;;;10.02;2.47;;;18.00;99.90;;;;;;4995245;28;20050;-82
2023/05/21 08:27:14;;;;;;;10.35;1.85;;;18.10;99.90;;;;;;4980295;28;20041;-84
2023/05/21 08:30:00;;;;;;;7.32;2.47;;;18.00;99.90;;;;;;4993867;28;20572;-82
2023/05/21 08:32:47;;;;;;;13.98;2.95;;;18.00;99.90;;;;;;4993629;28;20509;-82
2023/05/21 08:35:33;;;;;;;9.88;3.00;;;17.90;99.90;;;;;;5012269;28;20057;-82
2023/05/21 08:38:20;;;;;;;8.75;2.70;;;17.70;99.90;;;;;;4997864;28;20054;-89
2023/05/21 08:41:07;;;;;;;10.48;2.60;;;17.60;99.90;;;;;;5007419;28;20065;-89
2023/05/21 08:44:00;;;;;;;11.18;2.70;;;17.60;99.90;;;;;;5026031;28;20082;-88
2023/05/21 08:46:50;;;;;;;10.88;2.95;;;17.70;99.90;;;;;;5016922;28;20068;-83
2023/05/21 08:49:36;;;;;;;9.68;2.60;;;17.70;99.90;;;;;;4998054;28;20056;-87
2023/05/21 08:52:23;;;;;;;12.30;2.85;;;17.60;99.90;;;;;;4994544;28;20524;-85
2023/05/21 08:55:10;;;;;;;6.85;1.98;;;17.60;99.90;;;;;;4993478;28;20502;-84
2023/05/21 08:57:56;;;;;;;8.93;2.67;;;17.60;99.90;;;;;;4980095;28;20132;-83
2023/05/21 09:00:42;;;;;;;10.50;3.00;;;17.50;99.90;;;;;;4996322;28;20096;-83
2023/05/21 09:03:30;;;;;;;9.65;2.45;;;17.40;99.90;;;;;;4979937;28;20058;-86
2023/05/21 09:06:18;;;;;;;10.82;2.58;;;17.40;99.90;;;;;;4993989;28;20584;-84
2023/05/21 09:09:23;;;;;;;8.98;2.45;;;17.50;99.90;;;;;;5011897;28;20485;-84
2023/05/21 09:12:10;;;;;;;7.20;2.53;;;17.50;99.90;;;;;;5010545;28;20058;-85
2023/05/21 09:14:57;;;;;;;7.35;2.00;;;17.80;99.90;;;;;;5009921;28;20058;-82
2023/05/21 09:17:47;;;;;;;7.78;2.95;;;18.00;99.90;;;;;;4996055;28;20116;-86
2023/05/21 09:20:34;;;;;;;10.32;2.10;;;18.20;99.90;;;;;;4994323;28;20088;-84
2023/05/21 09:23:20;;;;;;;6.80;2.10;;;18.40;99.90;;;;;;5009689;28;20046;-82
2023/05/21 09:26:11;;;;;;;10.68;2.72;;;18.40;99.90;;;;;;5010892;28;20101;-87
2023/05/21 09:28:59;;;;;;;10.18;2.35;;;18.60;99.90;;;;;;4993192;28;20058;-83
2023/05/21 09:31:45;;;;;;;9.23;2.40;;;18.50;99.90;;;;;;4993350;28;20112;-84
2023/05/21 09:34:35;;;;;;;10.60;2.45;;;18.60;99.90;;;;;;5008802;28;20053;-83
2023/05/21 09:37:21;;;;;;;8.68;2.70;;;18.70;99.90;;;;;;4992479;28;20092;-87
2023/05/21 09:40:20;;;;;;;8.35;2.33;;;18.70;99.90;;;;;;5010868;28;20049;-83
2023/05/21 09:43:06;;;;;;;13.10;2.50;;;18.80;99.90;;;;;;4979695;28;20565;-81
2023/05/21 09:45:56;;;;;;;16.35;3.35;;;18.60;99.90;;;;;;4993191;28;20490;-81
2023/05/21 09:48:42;;;;;;;11.68;3.20;;;18.60;99.90;;;;;;5010259;28;20048;-83
2023/05/21 09:51:28;;;;;;;7.25;2.60;;;18.60;99.90;;;;;;4991929;28;20128;-85
2023/05/21 09:54:14;;;;;;;13.73;3.80;;;18.80;99.90;;;;;;5009473;28;20215;-86
2023/05/21 09:57:03;;;;;;;8.43;2.88;;;18.90;99.90;;;;;;4995067;28;20057;-86
2023/05/21 09:59:49;;;;;;;10.80;2.97;;;19.20;99.90;;;;;;5009506;28;20084;-83
2023/05/21 10:02:40;;;;;;;13.57;3.20;;;19.20;99.90;;;;;;5008012;28;20057;-83
2023/05/21 10:05:28;;;;;;;7.93;2.60;;;19.30;99.90;;;;;;4992421;28;20061;-84
2023/05/21 10:08:20;;;;;;;9.73;2.35;;;19.20;99.90;;;;;;5010439;28;20057;-86
2023/05/21 10:11:07;;;;;;;9.57;2.42;;;19.50;99.90;;;;;;4978962;28;20046;-83
2023/05/21 10:14:07;;;;;;;8.07;2.85;;;19.60;99.90;;;;;;4993135;28;20057;-83
2023/05/21 10:16:54;;;;;;;8.52;2.78;;;19.60;99.90;;;;;;4992205;28;20060;-83
2023/05/21 10:19:41;;;;;;;8.52;2.65;;;19.60;99.90;;;;;;5009740;28;20418;-83
2023/05/21 10:22:28;;;;;;;12.50;3.17;;;19.70;99.90;;;;;;4991124;28;20062;-83
2023/05/21 10:25:15;;;;;;;6.78;2.80;;;19.80;99.90;;;;;;4991827;28;20058;-83
2023/05/21 10:28:02;;;;;;;17.48;2.92;;;19.80;99.90;;;;;;5009960;28;20046;-83
2023/05/21 10:30:48;;;;;;;7.65;2.45;;;20.10;99.70;;;;;;4995071;28;20061;-86
2023/05/21 10:33:34;;;;;;;14.15;3.25;;;20.10;99.40;;;;;;5009800;28;20124;-83
2023/05/21 10:36:22;;;;;;;12.20;3.13;;;20.30;99.40;;;;;;5009195;28;20049;-84
2023/05/21 10:39:11;;;;;;;11.15;2.90;;;20.40;99.10;;;;;;4992890;28;20102;-83
2023/05/21 10:42:07;;;;;;;7.75;2.42;;;20.60;98.90;;;;;;4991667;28;20137;-85
2023/05/21 10:45:11;;;;;;;10.68;3.10;;;21.10;98.60;;;;;;4992112;28;20058;-83
2023/05/21 10:48:22;;;;;;;8.55;2.60;;;21.20;98.10;;;;;;4992318;28;20494;-84
2023/05/21 10:51:33;;;;;;;7.28;2.45;;;21.40;97.30;;;;;;5010577;28;20050;-87
2023/05/21 10:54:57;;;;;;;9.35;2.60;;;21.40;97.10;;;;;;4994394;28;20406;-85
2023/05/21 10:58:19;;;;;;;8.63;2.67;;;21.10;96.60;;;;;;4992509;28;20409;-84
2023/05/21 11:01:06;;;;;;;10.52;2.55;;;20.90;97.60;;;;;;4895531;29;20060;-83
2023/05/21 11:03:53;;;;;;;8.77;2.95;;;20.90;97.90;;;;;;5010407;28;20529;-87
2023/05/21 11:06:39;;;;;;;12.32;3.63;;;21.00;98.00;;;;;;4991184;28;20149;-81
2023/05/21 11:09:25;;;;;;;8.18;2.72;;;21.30;97.70;;;;;;5009081;28;20050;-86
2023/05/21 11:12:12;;;;;;;9.65;2.80;;;21.50;97.20;;;;;;5008219;28;20057;-85
2023/05/21 11:14:58;;;;;;;8.55;2.78;;;21.50;97.30;;;;;;5007161;28;20057;-83
2023/05/21 11:17:48;;;;;;;9.50;2.55;;;21.50;97.30;;;;;;4979550;28;20164;-82
2023/05/21 11:20:35;;;;;;;9.38;2.78;;;21.80;97.10;;;;;;4991930;28;20049;-82
2023/05/21 11:23:22;;;;;;;9.02;2.75;;;21.80;96.70;;;;;;4990834;28;20062;-83
2023/05/21 11:26:08;;;;;;;9.88;3.38;;;22.10;96.70;;;;;;5009422;28;20597;-86
2023/05/21 11:29:06;;;;;;;9.52;3.17;;;22.20;95.80;;;;;;4992168;28;20145;-82
2023/05/21 11:32:04;;;;;;;7.65;3.10;;;22.50;95.30;;;;;;4992766;28;20089;-84
2023/05/21 11:34:50;;;;;;;10.27;3.40;;;22.30;95.50;;;;;;4998572;28;20517;-87
2023/05/21 11:37:40;;;;;;;9.75;3.25;;;22.70;95.40;;;;;;5011758;28;20104;-85
2023/05/21 11:40:29;;;;;;;8.52;2.92;;;22.80;94.50;;;;;;5012866;28;20081;-83
2023/05/21 11:43:14;;;;;;;13.50;4.43;;;22.80;95.00;;;;;;4990831;28;20145;-88
2023/05/21 11:46:01;;;;;;;13.10;5.03;;;22.90;94.70;;;;;;4981003;28;20057;-85
2023/05/21 11:48:49;;;;;;;8.60;3.35;;;22.80;94.50;;;;;;4997540;28;20081;-83
2023/05/21 11:51:35;;;;;;;9.02;3.38;;;23.00;93.90;;;;;;4981557;28;20052;-83
2023/05/21 11:54:22;;;;;;;9.55;2.88;;;22.80;94.10;;;;;;5011535;28;20056;-83
2023/05/21 11:57:09;;;;;;;8.57;3.30;;;23.00;94.50;;;;;;5011363;28;20053;-89
2023/05/21 11:59:57;;;;;;;9.10;3.88;;;23.10;94.20;;;;;;4994358;28;20584;-86
2023/05/21 12:02:52;;;;;;;13.93;4.55;;;23.10;94.10;;;;;;4994521;28;20421;-86
2023/05/21 12:05:48;;;;;;;9.10;3.95;;;23.20;94.20;;;;;;4995962;28;20057;-87
2023/05/21 12:08:34;;;;;;;11.05;3.53;;;23.50;93.70;;;;;;4994218;28;20058;-83
2023/05/21 12:11:20;;;;;;;10.00;3.60;;;23.60;93.50;;;;;;4993815;28;20053;-83
2023/05/21 12:14:10;;;;;;;13.07;4.53;;;23.70;93.10;;;;;;4988431;28;20050;-87
2023/05/21 12:16:56;;;;;;;12.73;3.83;;;23.80;93.00;;;;;;5003746;28;20100;-83
2023/05/21 12:19:46;;;;;;;13.35;4.20;;;23.90;93.20;;;;;;4994721;28;20107;-88
2023/05/21 12:22:32;;;;;;;17.50;5.43;;;24.00;93.10;;;;;;5012739;28;20050;-87
2023/05/21 12:25:19;;;;;;;14.45;4.10;;;23.80;92.70;;;;;;4994283;28;20064;-82
2023/05/21 12:28:05;;;;;;;11.57;5.20;;;23.80;93.00;;;;;;5011775;28;20128;-88
2023/05/21 12:30:52;;;;;;;12.88;5.22;;;23.60;92.60;;;;;;4993664;28;20107;-82
2023/05/21 12:33:38;;;;;;;12.45;4.88;;;23.80;93.10;;;;;;5012383;28;20177;-82
2023/05/21 12:36:30;;;;;;;9.52;4.28;;;23.80;93.00;;;;;;5010710;28;20061;-83
2023/05/21 12:39:16;;;;;;;12.00;5.03;;;24.00;92.50;;;;;;4994160;28;20580;-86
2023/05/21 12:42:04;;;;;;;12.10;4.45;;;24.30;92.40;;;;;;4993481;28;20068;-85
2023/05/21 12:44:52;;;;;;;12.57;5.10;;;24.60;92.20;;;;;;5010500;28;20053;-87
2023/05/21 12:47:38;;;;;;;14.52;5.47;;;24.60;91.80;;;;;;4993536;28;20046;-85
2023/05/21 12:50:25;;;;;;;12.10;5.47;;;24.50;92.00;;;;;;4993076;28;20061;-89
2023/05/21 12:53:11;;;;;;;14.18;4.78;;;24.60;91.80;;;;;;4996173;28;20144;-87
2023/05/21 12:56:13;;;;;;;8.63;4.05;;;24.80;91.50;;;;;;5009971;28;20065;-87
2023/05/21 12:58:59;;;;;;;14.82;5.93;;;24.80;91.50;;;;;;5011031;28;20065;-90
2023/05/21 13:01:48;;;;;;;13.98;5.45;;;24.70;91.30;;;;;;5011487;28;20056;-85
2023/05/21 13:04:35;;;;;;;11.65;4.88;;;25.00;91.40;;;;;;5011093;28;20057;-82
2023/05/21 13:07:22;;;;;;;11.70;4.85;;;25.00;91.20;;;;;;5011381;28;20053;-87
2023/05/21 13:10:09;;;;;;;9.38;5.03;;;25.00;91.20;;;;;;5011590;28;20045;-85
2023/05/21 13:12:55;;;;;;;13.25;5.03;;;25.10;91.10;;;;;;5010703;28;20061;-87
2023/05/21 13:15:41;;;;;;;11.55;4.93;;;25.50;91.20;;;;;;4993345;28;20061;-86
2023/05/21 13:18:27;;;;;;;11.98;6.15;;;25.50;91.00;;;;;;5009602;28;20085;-91
2023/05/21 13:21:13;;;;;;;11.45;5.20;;;25.20;90.50;;;;;;5011263;28;20046;-86
2023/05/21 13:23:59;;;;;;;15.80;5.50;;;25.20;90.50;;;;;;4994488;28;20065;-84
2023/05/21 13:26:45;;;;;;;12.55;4.53;;;25.40;90.80;;;;;;5011839;28;20112;-88
2023/05/21 13:29:31;;;;;;;16.90;5.30;;;25.60;90.90;;;;;;5016062;28;20109;-85
2023/05/21 13:32:17;;;;;;;11.25;5.03;;;25.80;90.30;;;;;;5021786;28;20140;-82
2023/05/21 13:35:04;;;;;;;8.98;4.53;;;25.80;90.60;;;;;;5022927;28;20146;-84
2023/05/21 13:37:51;;;;;;;12.48;5.40;;;25.70;90.40;;;;;;4996397;28;20107;-83
2023/05/21 13:40:38;;;;;;;11.50;5.90;;;25.80;90.10;;;;;;4980792;28;20045;-83
2023/05/21 13:43:24;;;;;;;9.98;5.60;;;25.80;89.90;;;;;;4992959;28;20108;-88
2023/05/21 13:46:10;;;;;;;8.68;4.53;;;25.60;89.30;;;;;;4993869;28;20049;-83
2023/05/21 13:48:56;;;;;;;10.65;5.43;;;26.00;89.90;;;;;;5009920;28;20053;-84
2023/05/21 13:51:42;;;;;;;11.73;5.10;;;26.00;90.10;;;;;;5010024;28;20073;-85
2023/05/21 13:54:28;;;;;;;12.10;5.03;;;26.60;88.90;;;;;;5010503;28;20115;-82
2023/05/21 13:57:15;;;;;;;15.13;5.55;;;26.50;88.00;;;;;;4991281;28;20406;-84
2023/05/21 14:00:01;;;;;;;12.27;4.68;;;26.60;88.00;;;;;;4993272;28;20058;-85
2023/05/21 14:02:47;;;;;;;14.82;4.65;;;26.60;88.20;;;;;;5011212;28;20476;-85
2023/05/21 14:05:33;;;;;;;9.02;5.00;;;26.90;87.80;;;;;;5011197;28;20651;-83
2023/05/21 14:08:20;;;;;;;11.25;5.50;;;27.50;86.10;;;;;;4995043;28;20095;-82
2023/05/21 14:11:06;;;;;;;11.55;5.72;;;27.60;84.80;;;;;;4992412;28;20544;-90
2023/05/21 14:13:52;;;;;;;15.10;5.45;;;27.70;84.40;;;;;;4992523;28;20056;-85
2023/05/21 14:16:38;;;;;;;17.00;5.28;;;27.70;84.00;;;;;;5009340;28;20068;-86
2023/05/21 14:19:24;;;;;;;11.75;4.80;;;28.10;83.50;;;;;;5008957;28;20049;-87
2023/05/21 14:22:11;;;;;;;17.15;5.72;;;28.10;83.00;;;;;;4991338;28;20116;-84
2023/05/21 14:24:57;;;;;;;10.55;5.45;;;27.90;82.90;;;;;;5008243;28;20140;-85